sensor_id;sensor_type;location;lat;lon;timestamp;temperature;humidity
57843;DHT22;43673;51.058;3.734;2022-07-24T00:01:41;21.10;99.90
57843;DHT22;43673;51.058;3.734;2022-07-24T00:04:07;21.10;99.90
57843;DHT22;43673;51.058;3.734;2022-07-24T00:06:32;21.00;99.90
57843;DHT22;43673;51.058;3.734;2022-07-24T00:08:58;21.10;99.90
57843;DHT22;43673;51.058;3.734;2022-07-24T00:11:24;21.10;99.90
57843;DHT22;43673;51.058;3.734;2022-07-24T00:13:50;21.00;99.90
57843;DHT22;43673;51.058;3.734;2022-07-24T00:16:16;21.00;99.90
57843;DHT22;43673;51.058;3.734;2022-07-24T00:18:42;21.00;99.90
57843;DHT22;43673;51.058;3.734;2022-07-24T00:21:07;20.90;99.90
57843;DHT22;43673;51.058;3.734;2022-07-24T00:23:33;20.90;99.90
57843;DHT22;43673;51.058;3.734;2022-07-24T00:25:59;20.90;99.90
57843;DHT22;43673;51.058;3.734;2022-07-24T00:28:25;20.80;99.90
57843;DHT22;43673;51.058;3.734;2022-07-24T00:30:50;20.80;99.90
57843;DHT22;43673;51.058;3.734;2022-07-24T00:33:16;20.70;99.90
57843;DHT22;43673;51.058;3.734;2022-07-24T00:35:42;20.70;99.90
57843;DHT22;43673;51.058;3.734;2022-07-24T00:38:09;20.70;99.90
57843;DHT22;43673;51.058;3.734;2022-07-24T00:40:34;20.60;99.90
57843;DHT22;43673;51.058;3.734;2022-07-24T00:43:02;20.60;99.90
57843;DHT22;43673;51.058;3.734;2022-07-24T00:45:28;20.50;99.90
57843;DHT22;43673;51.058;3.734;2022-07-24T00:47:53;20.50;99.90
57843;DHT22;43673;51.058;3.734;2022-07-24T00:50:19;20.50;99.90
57843;DHT22;43673;51.058;3.734;2022-07-24T00:52:45;20.50;99.90
57843;DHT22;43673;51.058;3.734;2022-07-24T00:55:11;20.50;99.90
57843;DHT22;43673;51.058;3.734;2022-07-24T00:57:37;20.70;99.90
57843;DHT22;43673;51.058;3.734;2022-07-24T01:00:07;20.70;99.90
57843;DHT22;43673;51.058;3.734;2022-07-24T01:02:33;20.70;99.90
57843;DHT22;43673;51.058;3.734;2022-07-24T01:04:59;20.60;99.90
57843;DHT22;43673;51.058;3.734;2022-07-24T01:07:25;20.60;99.90
57843;DHT22;43673;51.058;3.734;2022-07-24T01:09:52;20.50;99.90
57843;DHT22;43673;51.058;3.734;2022-07-24T01:12:18;20.50;99.90
57843;DHT22;43673;51.058;3.734;2022-07-24T01:14:44;20.50;99.90
57843;DHT22;43673;51.058;3.734;2022-07-24T01:17:10;20.40;99.90
57843;DHT22;43673;51.058;3.734;2022-07-24T01:19:36;20.40;99.90
57843;DHT22;43673;51.058;3.734;2022-07-24T01:22:02;20.40;99.90
57843;DHT22;43673;51.058;3.734;2022-07-24T01:24:31;20.40;99.90
57843;DHT22;43673;51.058;3.734;2022-07-24T01:26:57;20.30;99.90
57843;DHT22;43673;51.058;3.734;2022-07-24T01:29:22;20.30;99.90
57843;DHT22;43673;51.058;3.734;2022-07-24T01:31:48;20.30;99.90
57843;DHT22;43673;51.058;3.734;2022-07-24T01:34:14;20.30;99.90
57843;DHT22;43673;51.058;3.734;2022-07-24T01:36:39;20.30;99.90
57843;DHT22;43673;51.058;3.734;2022-07-24T01:39:05;20.30;99.90
57843;DHT22;43673;51.058;3.734;2022-07-24T01:41:31;20.30;99.90
57843;DHT22;43673;51.058;3.734;2022-07-24T01:43:57;20.30;99.90
57843;DHT22;43673;51.058;3.734;2022-07-24T01:46:22;20.30;99.90
57843;DHT22;43673;51.058;3.734;2022-07-24T01:48:48;20.20;99.90
57843;DHT22;43673;51.058;3.734;2022-07-24T01:51:14;20.20;99.90
57843;DHT22;43673;51.058;3.734;2022-07-24T01:53:40;20.20;99.90
57843;DHT22;43673;51.058;3.734;2022-07-24T01:56:06;20.20;99.90
57843;DHT22;43673;51.058;3.734;2022-07-24T01:58:31;20.10;99.90
57843;DHT22;43673;51.058;3.734;2022-07-24T02:00:57;20.10;99.90
57843;DHT22;43673;51.058;3.734;2022-07-24T02:03:23;20.10;99.90
57843;DHT22;43673;51.058;3.734;2022-07-24T02:05:48;20.10;99.90
57843;DHT22;43673;51.058;3.734;2022-07-24T02:08:14;20.30;99.90
57843;DHT22;43673;51.058;3.734;2022-07-24T02:10:40;20.10;99.90
57843;DHT22;43673;51.058;3.734;2022-07-24T02:13:06;20.00;99.90
57843;DHT22;43673;51.058;3.734;2022-07-24T02:15:32;20.00;99.90
57843;DHT22;43673;51.058;3.734;2022-07-24T02:17:59;20.00;99.90
57843;DHT22;43673;51.058;3.734;2022-07-24T02:20:26;20.00;99.90
57843;DHT22;43673;51.058;3.734;2022-07-24T02:22:51;20.00;99.90
57843;DHT22;43673;51.058;3.734;2022-07-24T02:25:17;20.00;99.90
57843;DHT22;43673;51.058;3.734;2022-07-24T02:27:43;20.00;99.90
57843;DHT22;43673;51.058;3.734;2022-07-24T02:30:12;20.00;99.90
57843;DHT22;43673;51.058;3.734;2022-07-24T02:32:38;20.00;99.90
57843;DHT22;43673;51.058;3.734;2022-07-24T02:35:04;20.00;99.90
57843;DHT22;43673;51.058;3.734;2022-07-24T02:37:30;20.00;99.90
57843;DHT22;43673;51.058;3.734;2022-07-24T02:39:55;20.00;99.90
57843;DHT22;43673;51.058;3.734;2022-07-24T02:42:21;20.30;99.90
57843;DHT22;43673;51.058;3.734;2022-07-24T02:44:47;20.40;99.90
57843;DHT22;43673;51.058;3.734;2022-07-24T02:47:13;20.60;99.90
57843;DHT22;43673;51.058;3.734;2022-07-24T02:49:38;20.80;99.90
57843;DHT22;43673;51.058;3.734;2022-07-24T02:52:04;20.90;99.90
57843;DHT22;43673;51.058;3.734;2022-07-24T02:54:30;21.00;99.90
57843;DHT22;43673;51.058;3.734;2022-07-24T02:56:56;21.10;99.90
57843;DHT22;43673;51.058;3.734;2022-07-24T02:59:22;21.10;99.90
57843;DHT22;43673;51.058;3.734;2022-07-24T03:01:47;21.20;99.90
57843;DHT22;43673;51.058;3.734;2022-07-24T03:04:13;21.20;99.90
57843;DHT22;43673;51.058;3.734;2022-07-24T03:06:39;21.30;99.90
57843;DHT22;43673;51.058;3.734;2022-07-24T03:09:05;21.30;99.90
57843;DHT22;43673;51.058;3.734;2022-07-24T03:11:31;21.30;99.90
57843;DHT22;43673;51.058;3.734;2022-07-24T03:13:56;21.40;99.90
57843;DHT22;43673;51.058;3.734;2022-07-24T03:16:22;21.40;99.90
57843;DHT22;43673;51.058;3.734;2022-07-24T03:18:48;21.40;99.90
57843;DHT22;43673;51.058;3.734;2022-07-24T03:21:14;21.50;99.90
57843;DHT22;43673;51.058;3.734;2022-07-24T03:23:40;21.40;99.90
57843;DHT22;43673;51.058;3.734;2022-07-24T03:26:06;21.30;99.90
57843;DHT22;43673;51.058;3.734;2022-07-24T03:28:31;21.20;99.90
57843;DHT22;43673;51.058;3.734;2022-07-24T03:30:57;21.20;99.90
57843;DHT22;43673;51.058;3.734;2022-07-24T03:33:23;21.10;99.90
57843;DHT22;43673;51.058;3.734;2022-07-24T03:35:48;21.10;99.90
57843;DHT22;43673;51.058;3.734;2022-07-24T03:38:14;21.20;99.90
57843;DHT22;43673;51.058;3.734;2022-07-24T03:40:40;21.10;99.90
57843;DHT22;43673;51.058;3.734;2022-07-24T03:43:06;21.10;99.90
57843;DHT22;43673;51.058;3.734;2022-07-24T03:45:32;21.10;99.90
57843;DHT22;43673;51.058;3.734;2022-07-24T03:47:57;21.00;99.90
57843;DHT22;43673;51.058;3.734;2022-07-24T03:50:23;21.00;99.90
57843;DHT22;43673;51.058;3.734;2022-07-24T03:52:49;20.90;99.90
57843;DHT22;43673;51.058;3.734;2022-07-24T03:55:15;20.90;99.90
57843;DHT22;43673;51.058;3.734;2022-07-24T03:57:40;20.90;99.90
57843;DHT22;43673;51.058;3.734;2022-07-24T04:00:06;20.90;99.90
57843;DHT22;43673;51.058;3.734;2022-07-24T04:02:33;20.80;99.90
57843;DHT22;43673;51.058;3.734;2022-07-24T04:04:59;20.70;99.90
57843;DHT22;43673;51.058;3.734;2022-07-24T04:07:25;20.70;99.90
57843;DHT22;43673;51.058;3.734;2022-07-24T04:09:50;20.70;99.90
57843;DHT22;43673;51.058;3.734;2022-07-24T04:12:16;20.80;99.90
57843;DHT22;43673;51.058;3.734;2022-07-24T04:14:42;20.90;99.90
57843;DHT22;43673;51.058;3.734;2022-07-24T04:17:08;20.90;99.90
57843;DHT22;43673;51.058;3.734;2022-07-24T04:19:33;20.90;99.90
57843;DHT22;43673;51.058;3.734;2022-07-24T04:21:59;20.90;99.90
57843;DHT22;43673;51.058;3.734;2022-07-24T04:24:25;21.00;99.90
57843;DHT22;43673;51.058;3.734;2022-07-24T04:26:51;20.90;99.90
57843;DHT22;43673;51.058;3.734;2022-07-24T04:29:16;20.90;99.90
57843;DHT22;43673;51.058;3.734;2022-07-24T04:31:42;20.90;99.90
57843;DHT22;43673;51.058;3.734;2022-07-24T04:34:08;20.90;99.90
57843;DHT22;43673;51.058;3.734;2022-07-24T04:36:33;21.00;99.90
57843;DHT22;43673;51.058;3.734;2022-07-24T04:38:59;21.00;99.90
57843;DHT22;43673;51.058;3.734;2022-07-24T04:41:25;21.10;99.90
57843;DHT22;43673;51.058;3.734;2022-07-24T04:43:50;21.20;99.90
57843;DHT22;43673;51.058;3.734;2022-07-24T04:46:17;21.30;99.90
57843;DHT22;43673;51.058;3.734;2022-07-24T04:48:43;21.30;99.90
57843;DHT22;43673;51.058;3.734;2022-07-24T04:51:09;21.40;99.90
57843;DHT22;43673;51.058;3.734;2022-07-24T04:53:34;21.30;99.90
57843;DHT22;43673;51.058;3.734;2022-07-24T04:56:00;21.30;99.90
57843;DHT22;43673;51.058;3.734;2022-07-24T04:58:26;22.30;99.90
57843;DHT22;43673;51.058;3.734;2022-07-24T05:00:52;23.70;97.30
57843;DHT22;43673;51.058;3.734;2022-07-24T05:03:18;24.90;94.30
57843;DHT22;43673;51.058;3.734;2022-07-24T05:05:44;26.20;92.20
57843;DHT22;43673;51.058;3.734;2022-07-24T05:08:10;27.50;89.00
57843;DHT22;43673;51.058;3.734;2022-07-24T05:10:36;28.20;82.90
57843;DHT22;43673;51.058;3.734;2022-07-24T05:13:02;29.10;79.20
57843;DHT22;43673;51.058;3.734;2022-07-24T05:15:27;29.70;74.90
57843;DHT22;43673;51.058;3.734;2022-07-24T05:17:53;30.50;72.20
57843;DHT22;43673;51.058;3.734;2022-07-24T05:20:19;31.10;68.60
57843;DHT22;43673;51.058;3.734;2022-07-24T05:22:44;31.80;66.00
57843;DHT22;43673;51.058;3.734;2022-07-24T05:25:10;32.50;62.50
57843;DHT22;43673;51.058;3.734;2022-07-24T05:27:36;33.20;59.90
57843;DHT22;43673;51.058;3.734;2022-07-24T05:30:03;33.80;57.60
57843;DHT22;43673;51.058;3.734;2022-07-24T05:32:30;34.10;56.20
57843;DHT22;43673;51.058;3.734;2022-07-24T05:34:55;34.60;54.00
57843;DHT22;43673;51.058;3.734;2022-07-24T05:37:21;35.00;52.70
57843;DHT22;43673;51.058;3.734;2022-07-24T05:39:47;35.50;51.20
57843;DHT22;43673;51.058;3.734;2022-07-24T05:42:12;34.90;51.90
57843;DHT22;43673;51.058;3.734;2022-07-24T05:44:38;33.50;53.00
57843;DHT22;43673;51.058;3.734;2022-07-24T05:47:04;32.00;55.00
57843;DHT22;43673;51.058;3.734;2022-07-24T05:49:30;30.90;57.10
57843;DHT22;43673;51.058;3.734;2022-07-24T05:51:56;30.00;58.90
57843;DHT22;43673;51.058;3.734;2022-07-24T05:54:21;29.30;60.30
57843;DHT22;43673;51.058;3.734;2022-07-24T05:56:47;29.30;60.60
57843;DHT22;43673;51.058;3.734;2022-07-24T05:59:13;30.50;58.70
57843;DHT22;43673;51.058;3.734;2022-07-24T06:01:39;32.00;56.40
57843;DHT22;43673;51.058;3.734;2022-07-24T06:04:05;33.30;54.30
57843;DHT22;43673;51.058;3.734;2022-07-24T06:06:30;34.40;51.90
57843;DHT22;43673;51.058;3.734;2022-07-24T06:08:56;35.10;51.00
57843;DHT22;43673;51.058;3.734;2022-07-24T06:11:21;35.70;49.40
57843;DHT22;43673;51.058;3.734;2022-07-24T06:13:48;36.30;48.20
57843;DHT22;43673;51.058;3.734;2022-07-24T06:16:14;37.20;47.00
57843;DHT22;43673;51.058;3.734;2022-07-24T06:18:39;37.90;45.50
57843;DHT22;43673;51.058;3.734;2022-07-24T06:21:05;36.40;46.40
57843;DHT22;43673;51.058;3.734;2022-07-24T06:23:31;34.80;48.40
57843;DHT22;43673;51.058;3.734;2022-07-24T06:25:58;34.50;49.30
57843;DHT22;43673;51.058;3.734;2022-07-24T06:28:24;35.40;48.70
57843;DHT22;43673;51.058;3.734;2022-07-24T06:30:50;36.50;47.20
57843;DHT22;43673;51.058;3.734;2022-07-24T06:33:15;37.20;45.60
57843;DHT22;43673;51.058;3.734;2022-07-24T06:35:41;37.20;44.90
57843;DHT22;43673;51.058;3.734;2022-07-24T06:38:07;37.60;44.20
57843;DHT22;43673;51.058;3.734;2022-07-24T06:40:33;38.20;43.90
57843;DHT22;43673;51.058;3.734;2022-07-24T06:42:59;38.40;43.20
57843;DHT22;43673;51.058;3.734;2022-07-24T06:45:25;38.80;42.60
57843;DHT22;43673;51.058;3.734;2022-07-24T06:47:51;38.80;41.90
57843;DHT22;43673;51.058;3.734;2022-07-24T06:50:16;39.00;41.90
57843;DHT22;43673;51.058;3.734;2022-07-24T06:52:42;39.10;41.90
57843;DHT22;43673;51.058;3.734;2022-07-24T06:55:08;39.40;41.50
57843;DHT22;43673;51.058;3.734;2022-07-24T06:57:34;39.50;41.30
57843;DHT22;43673;51.058;3.734;2022-07-24T07:00:00;39.80;40.80
57843;DHT22;43673;51.058;3.734;2022-07-24T07:02:26;40.20;40.20
57843;DHT22;43673;51.058;3.734;2022-07-24T07:04:51;40.00;40.00
57843;DHT22;43673;51.058;3.734;2022-07-24T07:07:17;39.20;40.40
57843;DHT22;43673;51.058;3.734;2022-07-24T07:09:43;38.80;40.70
57843;DHT22;43673;51.058;3.734;2022-07-24T07:12:09;38.70;41.20
57843;DHT22;43673;51.058;3.734;2022-07-24T07:14:35;39.00;41.00
57843;DHT22;43673;51.058;3.734;2022-07-24T07:17:01;38.60;41.30
57843;DHT22;43673;51.058;3.734;2022-07-24T07:19:26;39.00;41.20
57843;DHT22;43673;51.058;3.734;2022-07-24T07:21:52;39.30;40.60
57843;DHT22;43673;51.058;3.734;2022-07-24T07:24:18;39.30;40.20
57843;DHT22;43673;51.058;3.734;2022-07-24T07:26:43;39.60;40.00
57843;DHT22;43673;51.058;3.734;2022-07-24T07:29:09;39.20;40.40
57843;DHT22;43673;51.058;3.734;2022-07-24T07:31:35;39.30;39.80
57843;DHT22;43673;51.058;3.734;2022-07-24T07:34:00;39.60;39.80
57843;DHT22;43673;51.058;3.734;2022-07-24T07:36:27;39.40;39.60
57843;DHT22;43673;51.058;3.734;2022-07-24T07:38:52;39.40;39.20
57843;DHT22;43673;51.058;3.734;2022-07-24T07:41:18;39.30;39.60
57843;DHT22;43673;51.058;3.734;2022-07-24T07:43:47;38.80;39.70
57843;DHT22;43673;51.058;3.734;2022-07-24T07:46:14;37.70;40.80
57843;DHT22;43673;51.058;3.734;2022-07-24T07:48:40;36.60;41.80
57843;DHT22;43673;51.058;3.734;2022-07-24T07:51:05;36.00;42.80
57843;DHT22;43673;51.058;3.734;2022-07-24T07:53:31;36.60;42.50
57843;DHT22;43673;51.058;3.734;2022-07-24T07:55:58;36.50;42.20
57843;DHT22;43673;51.058;3.734;2022-07-24T07:58:23;36.00;43.10
57843;DHT22;43673;51.058;3.734;2022-07-24T08:00:51;35.40;43.80
57843;DHT22;43673;51.058;3.734;2022-07-24T08:03:17;35.20;44.60
57843;DHT22;43673;51.058;3.734;2022-07-24T08:05:43;35.60;44.30
57843;DHT22;43673;51.058;3.734;2022-07-24T08:08:08;36.00;43.40
57843;DHT22;43673;51.058;3.734;2022-07-24T08:10:34;36.10;43.20
57843;DHT22;43673;51.058;3.734;2022-07-24T08:13:00;36.20;43.30
57843;DHT22;43673;51.058;3.734;2022-07-24T08:15:25;36.10;42.70
57843;DHT22;43673;51.058;3.734;2022-07-24T08:17:52;35.80;43.40
57843;DHT22;43673;51.058;3.734;2022-07-24T08:20:18;36.00;43.20
57843;DHT22;43673;51.058;3.734;2022-07-24T08:22:45;36.60;42.40
57843;DHT22;43673;51.058;3.734;2022-07-24T08:25:11;36.30;42.60
57843;DHT22;43673;51.058;3.734;2022-07-24T08:27:37;36.60;42.50
57843;DHT22;43673;51.058;3.734;2022-07-24T08:30:04;36.60;42.60
57843;DHT22;43673;51.058;3.734;2022-07-24T08:32:30;36.50;42.60
57843;DHT22;43673;51.058;3.734;2022-07-24T08:34:56;36.70;43.00
57843;DHT22;43673;51.058;3.734;2022-07-24T08:37:21;37.00;42.50
57843;DHT22;43673;51.058;3.734;2022-07-24T08:39:47;37.50;42.10
57843;DHT22;43673;51.058;3.734;2022-07-24T08:42:13;37.80;41.20
57843;DHT22;43673;51.058;3.734;2022-07-24T08:44:39;38.20;41.00
57843;DHT22;43673;51.058;3.734;2022-07-24T08:47:06;38.60;40.70
57843;DHT22;43673;51.058;3.734;2022-07-24T08:49:36;38.50;40.20
57843;DHT22;43673;51.058;3.734;2022-07-24T08:52:04;38.20;40.60
57843;DHT22;43673;51.058;3.734;2022-07-24T08:54:30;37.60;40.70
57843;DHT22;43673;51.058;3.734;2022-07-24T08:56:56;36.50;41.70
57843;DHT22;43673;51.058;3.734;2022-07-24T08:59:22;36.30;42.70
57843;DHT22;43673;51.058;3.734;2022-07-24T09:01:50;36.00;43.20
57843;DHT22;43673;51.058;3.734;2022-07-24T09:04:42;35.80;43.50
57843;DHT22;43673;51.058;3.734;2022-07-24T09:07:16;36.40;43.30
57843;DHT22;43673;51.058;3.734;2022-07-24T09:09:44;36.20;43.30
57843;DHT22;43673;51.058;3.734;2022-07-24T09:12:22;36.10;43.50
57843;DHT22;43673;51.058;3.734;2022-07-24T09:14:48;35.90;43.80
57843;DHT22;43673;51.058;3.734;2022-07-24T09:17:19;36.20;44.10
57843;DHT22;43673;51.058;3.734;2022-07-24T09:19:59;36.40;43.70
57843;DHT22;43673;51.058;3.734;2022-07-24T09:25:16;36.10;43.80
57843;DHT22;43673;51.058;3.734;2022-07-24T09:27:59;36.10;43.90
57843;DHT22;43673;51.058;3.734;2022-07-24T09:30:32;35.70;44.20
57843;DHT22;43673;51.058;3.734;2022-07-24T09:35:52;35.20;45.40
57843;DHT22;43673;51.058;3.734;2022-07-24T09:38:22;35.10;45.10
57843;DHT22;43673;51.058;3.734;2022-07-24T09:40:54;35.30;45.30
57843;DHT22;43673;51.058;3.734;2022-07-24T09:43:31;35.10;45.40
57843;DHT22;43673;51.058;3.734;2022-07-24T09:46:02;35.00;45.20
57843;DHT22;43673;51.058;3.734;2022-07-24T09:48:37;34.80;45.10
57843;DHT22;43673;51.058;3.734;2022-07-24T09:51:11;34.50;45.40
57843;DHT22;43673;51.058;3.734;2022-07-24T09:53:42;34.50;45.60
57843;DHT22;43673;51.058;3.734;2022-07-24T09:56:16;35.20;45.30
57843;DHT22;43673;51.058;3.734;2022-07-24T10:01:18;36.40;43.60
57843;DHT22;43673;51.058;3.734;2022-07-24T10:03:45;36.70;43.00
57843;DHT22;43673;51.058;3.734;2022-07-24T10:06:13;37.20;42.80
57843;DHT22;43673;51.058;3.734;2022-07-24T10:08:42;38.10;42.00
57843;DHT22;43673;51.058;3.734;2022-07-24T10:11:08;38.50;41.30
57843;DHT22;43673;51.058;3.734;2022-07-24T10:13:35;37.90;41.10
57843;DHT22;43673;51.058;3.734;2022-07-24T10:24:11;37.90;41.70
57843;DHT22;43673;51.058;3.734;2022-07-24T10:26:43;38.00;41.10
57843;DHT22;43673;51.058;3.734;2022-07-24T10:29:11;37.70;41.30
57843;DHT22;43673;51.058;3.734;2022-07-24T10:31:39;37.80;41.30
57843;DHT22;43673;51.058;3.734;2022-07-24T10:37:25;37.00;42.00
57843;DHT22;43673;51.058;3.734;2022-07-24T10:40:03;36.90;42.20
57843;DHT22;43673;51.058;3.734;2022-07-24T10:46:09;37.30;41.80
57843;DHT22;43673;51.058;3.734;2022-07-24T10:54:19;36.60;42.60
57843;DHT22;43673;51.058;3.734;2022-07-24T10:56:48;36.20;43.40
57843;DHT22;43673;51.058;3.734;2022-07-24T11:02:58;35.60;43.80
57843;DHT22;43673;51.058;3.734;2022-07-24T11:05:26;35.60;43.40
57843;DHT22;43673;51.058;3.734;2022-07-24T11:10:47;35.60;43.80
57843;DHT22;43673;51.058;3.734;2022-07-24T11:26:55;35.10;45.20
57843;DHT22;43673;51.058;3.734;2022-07-24T11:29:28;35.50;44.80
57843;DHT22;43673;51.058;3.734;2022-07-24T11:32:15;36.00;44.10
57843;DHT22;43673;51.058;3.734;2022-07-24T11:34:49;36.20;44.00
57843;DHT22;43673;51.058;3.734;2022-07-24T11:37:15;36.60;43.20
57843;DHT22;43673;51.058;3.734;2022-07-24T11:39:43;36.40;43.20
57843;DHT22;43673;51.058;3.734;2022-07-24T11:42:13;35.60;44.20
57843;DHT22;43673;51.058;3.734;2022-07-24T11:44:40;34.40;45.30
57843;DHT22;43673;51.058;3.734;2022-07-24T11:47:15;33.80;46.90
57843;DHT22;43673;51.058;3.734;2022-07-24T11:49:43;33.50;47.10
57843;DHT22;43673;51.058;3.734;2022-07-24T11:52:18;33.10;47.70
57843;DHT22;43673;51.058;3.734;2022-07-24T11:54:47;32.90;48.70
57843;DHT22;43673;51.058;3.734;2022-07-24T11:57:22;32.40;48.90
57843;DHT22;43673;51.058;3.734;2022-07-24T11:59:50;32.10;49.30
57843;DHT22;43673;51.058;3.734;2022-07-24T12:02:17;31.80;50.00
57843;DHT22;43673;51.058;3.734;2022-07-24T12:04:45;31.50;50.60
57843;DHT22;43673;51.058;3.734;2022-07-24T12:07:14;31.30;50.70
57843;DHT22;43673;51.058;3.734;2022-07-24T12:09:44;31.30;51.60
57843;DHT22;43673;51.058;3.734;2022-07-24T12:12:24;31.40;51.30
57843;DHT22;43673;51.058;3.734;2022-07-24T12:15:02;31.50;51.20
57843;DHT22;43673;51.058;3.734;2022-07-24T12:17:29;31.60;51.00
57843;DHT22;43673;51.058;3.734;2022-07-24T12:19:57;31.50;50.90
57843;DHT22;43673;51.058;3.734;2022-07-24T12:22:25;31.40;51.20
57843;DHT22;43673;51.058;3.734;2022-07-24T12:24:52;31.40;51.30
57843;DHT22;43673;51.058;3.734;2022-07-24T12:27:34;31.50;51.20
57843;DHT22;43673;51.058;3.734;2022-07-24T12:30:04;31.50;51.60
57843;DHT22;43673;51.058;3.734;2022-07-24T12:33:02;31.60;51.60
57843;DHT22;43673;51.058;3.734;2022-07-24T12:35:30;31.70;51.40
57843;DHT22;43673;51.058;3.734;2022-07-24T12:37:57;31.70;51.20
57843;DHT22;43673;51.058;3.734;2022-07-24T12:40:33;31.50;51.20
57843;DHT22;43673;51.058;3.734;2022-07-24T12:43:07;31.30;51.60
57843;DHT22;43673;51.058;3.734;2022-07-24T12:45:37;31.30;51.60
57843;DHT22;43673;51.058;3.734;2022-07-24T12:50:35;31.50;51.60
57843;DHT22;43673;51.058;3.734;2022-07-24T12:53:05;31.40;51.70
57843;DHT22;43673;51.058;3.734;2022-07-24T12:55:32;31.10;52.30
57843;DHT22;43673;51.058;3.734;2022-07-24T12:58:02;31.00;52.50
57843;DHT22;43673;51.058;3.734;2022-07-24T13:00:28;30.90;52.70
57843;DHT22;43673;51.058;3.734;2022-07-24T13:02:54;30.80;53.10
57843;DHT22;43673;51.058;3.734;2022-07-24T13:05:41;31.00;53.30
57843;DHT22;43673;51.058;3.734;2022-07-24T13:08:12;31.20;52.90
57843;DHT22;43673;51.058;3.734;2022-07-24T13:10:38;31.20;52.90
57843;DHT22;43673;51.058;3.734;2022-07-24T13:13:04;31.30;52.40
57843;DHT22;43673;51.058;3.734;2022-07-24T13:15:30;31.50;52.60
57843;DHT22;43673;51.058;3.734;2022-07-24T13:17:55;31.60;51.90
57843;DHT22;43673;51.058;3.734;2022-07-24T13:20:21;31.50;52.10
57843;DHT22;43673;51.058;3.734;2022-07-24T13:22:47;31.40;52.50
57843;DHT22;43673;51.058;3.734;2022-07-24T13:25:22;31.40;52.80
57843;DHT22;43673;51.058;3.734;2022-07-24T13:27:49;31.50;52.20
57843;DHT22;43673;51.058;3.734;2022-07-24T13:30:15;31.70;52.30
57843;DHT22;43673;51.058;3.734;2022-07-24T13:32:41;31.70;51.50
57843;DHT22;43673;51.058;3.734;2022-07-24T13:35:07;31.70;51.60
57843;DHT22;43673;51.058;3.734;2022-07-24T13:37:33;31.80;51.90
57843;DHT22;43673;51.058;3.734;2022-07-24T13:39:58;31.80;52.10
57843;DHT22;43673;51.058;3.734;2022-07-24T13:42:24;31.70;51.90
57843;DHT22;43673;51.058;3.734;2022-07-24T13:44:50;31.70;52.10
57843;DHT22;43673;51.058;3.734;2022-07-24T13:47:16;31.70;52.50
57843;DHT22;43673;51.058;3.734;2022-07-24T13:49:42;31.90;51.80
57843;DHT22;43673;51.058;3.734;2022-07-24T13:52:07;31.90;51.60
57843;DHT22;43673;51.058;3.734;2022-07-24T13:54:33;32.10;51.70
57843;DHT22;43673;51.058;3.734;2022-07-24T13:56:59;32.20;51.40
57843;DHT22;43673;51.058;3.734;2022-07-24T13:59:29;32.10;51.30
57843;DHT22;43673;51.058;3.734;2022-07-24T14:01:56;32.10;51.30
57843;DHT22;43673;51.058;3.734;2022-07-24T14:04:21;32.00;51.50
57843;DHT22;43673;51.058;3.734;2022-07-24T14:06:47;31.90;51.90
57843;DHT22;43673;51.058;3.734;2022-07-24T14:09:13;32.00;51.90
57843;DHT22;43673;51.058;3.734;2022-07-24T14:11:42;32.10;51.50
57843;DHT22;43673;51.058;3.734;2022-07-24T14:14:07;32.20;51.40
57843;DHT22;43673;51.058;3.734;2022-07-24T14:16:33;32.20;51.40
57843;DHT22;43673;51.058;3.734;2022-07-24T14:18:59;32.40;51.00
57843;DHT22;43673;51.058;3.734;2022-07-24T14:21:25;32.40;50.70
57843;DHT22;43673;51.058;3.734;2022-07-24T14:23:51;32.40;50.80
57843;DHT22;43673;51.058;3.734;2022-07-24T14:26:16;32.30;50.60
57843;DHT22;43673;51.058;3.734;2022-07-24T14:28:42;32.30;51.00
57843;DHT22;43673;51.058;3.734;2022-07-24T14:31:08;32.40;51.10
57843;DHT22;43673;51.058;3.734;2022-07-24T14:33:34;32.50;50.50
57843;DHT22;43673;51.058;3.734;2022-07-24T14:36:00;32.60;50.30
57843;DHT22;43673;51.058;3.734;2022-07-24T14:38:26;32.50;50.20
57843;DHT22;43673;51.058;3.734;2022-07-24T14:40:52;32.30;50.80
57843;DHT22;43673;51.058;3.734;2022-07-24T14:43:17;32.30;51.30
57843;DHT22;43673;51.058;3.734;2022-07-24T14:45:43;32.30;51.00
57843;DHT22;43673;51.058;3.734;2022-07-24T14:48:09;32.30;50.80
57843;DHT22;43673;51.058;3.734;2022-07-24T14:50:34;32.40;51.00
57843;DHT22;43673;51.058;3.734;2022-07-24T14:53:00;32.50;51.10
57843;DHT22;43673;51.058;3.734;2022-07-24T14:55:26;32.50;50.90
57843;DHT22;43673;51.058;3.734;2022-07-24T14:57:52;32.40;50.80
57843;DHT22;43673;51.058;3.734;2022-07-24T15:00:17;32.60;51.10
57843;DHT22;43673;51.058;3.734;2022-07-24T15:02:43;32.40;50.50
57843;DHT22;43673;51.058;3.734;2022-07-24T15:05:09;32.40;50.60
57843;DHT22;43673;51.058;3.734;2022-07-24T15:07:35;32.40;50.70
57843;DHT22;43673;51.058;3.734;2022-07-24T15:10:00;32.60;50.30
57843;DHT22;43673;51.058;3.734;2022-07-24T15:12:26;32.60;50.50
57843;DHT22;43673;51.058;3.734;2022-07-24T15:14:55;32.70;50.30
57843;DHT22;43673;51.058;3.734;2022-07-24T15:17:22;32.60;49.60
57843;DHT22;43673;51.058;3.734;2022-07-24T15:19:48;32.60;50.00
57843;DHT22;43673;51.058;3.734;2022-07-24T15:22:14;32.60;50.30
57843;DHT22;43673;51.058;3.734;2022-07-24T15:24:40;32.70;50.00
57843;DHT22;43673;51.058;3.734;2022-07-24T15:27:08;32.60;49.90
57843;DHT22;43673;51.058;3.734;2022-07-24T15:29:35;32.60;50.00
57843;DHT22;43673;51.058;3.734;2022-07-24T15:32:00;32.60;50.20
57843;DHT22;43673;51.058;3.734;2022-07-24T15:34:27;32.60;49.90
57843;DHT22;43673;51.058;3.734;2022-07-24T15:36:55;32.70;49.50
57843;DHT22;43673;51.058;3.734;2022-07-24T15:39:21;32.70;49.90
57843;DHT22;43673;51.058;3.734;2022-07-24T15:41:47;32.60;49.60
57843;DHT22;43673;51.058;3.734;2022-07-24T15:44:14;32.70;49.30
57843;DHT22;43673;51.058;3.734;2022-07-24T15:46:40;32.80;49.30
57843;DHT22;43673;51.058;3.734;2022-07-24T15:49:06;32.80;49.50
57843;DHT22;43673;51.058;3.734;2022-07-24T15:51:44;32.90;49.30
57843;DHT22;43673;51.058;3.734;2022-07-24T15:54:19;33.00;49.00
57843;DHT22;43673;51.058;3.734;2022-07-24T15:56:56;33.30;48.70
57843;DHT22;43673;51.058;3.734;2022-07-24T15:59:23;33.20;48.60
57843;DHT22;43673;51.058;3.734;2022-07-24T16:01:49;33.20;48.20
57843;DHT22;43673;51.058;3.734;2022-07-24T16:04:15;33.20;48.30
57843;DHT22;43673;51.058;3.734;2022-07-24T16:06:42;33.20;48.20
57843;DHT22;43673;51.058;3.734;2022-07-24T16:09:08;33.30;48.20
57843;DHT22;43673;51.058;3.734;2022-07-24T16:11:34;33.20;48.10
57843;DHT22;43673;51.058;3.734;2022-07-24T16:14:00;33.30;48.40
57843;DHT22;43673;51.058;3.734;2022-07-24T16:21:31;33.20;48.10
57843;DHT22;43673;51.058;3.734;2022-07-24T16:24:02;33.10;48.30
57843;DHT22;43673;51.058;3.734;2022-07-24T16:26:29;33.00;48.00